createdAt,value
2022-09-02T00:01:41.361Z,72.30
2022-09-02T00:04:15.230Z,72.60
2022-09-02T00:06:45.872Z,72.80
2022-09-02T00:09:17.405Z,72.80
2022-09-02T00:11:47.902Z,73.00
2022-09-02T00:14:19.791Z,72.90
2022-09-02T00:19:22.941Z,73.00
2022-09-02T00:21:52.473Z,73.00
2022-09-02T00:24:20.909Z,73.30
2022-09-02T00:29:18.594Z,73.50
2022-09-02T00:36:47.986Z,73.30
2022-09-02T00:39:17.836Z,73.40
2022-09-02T00:44:17.561Z,73.60
2022-09-02T00:46:45.994Z,73.50
2022-09-02T00:49:17.921Z,73.50
2022-09-02T00:51:55.539Z,73.60
2022-09-02T00:54:25.493Z,73.70
2022-09-02T00:59:29.605Z,73.70
2022-09-02T01:04:27.815Z,74.00
2022-09-02T01:06:57.786Z,74.30
2022-09-02T01:11:55.104Z,74.70
2022-09-02T01:14:24.209Z,74.50
2022-09-02T01:17:00.865Z,74.90
2022-09-02T01:19:33.716Z,74.90
2022-09-02T01:22:03.978Z,74.80
2022-09-02T01:24:34.918Z,75.00
2022-09-02T01:29:32.159Z,75.10
2022-09-02T01:39:29.230Z,75.70
2022-09-02T01:44:27.680Z,76.10
2022-09-02T01:46:56.715Z,76.20
2022-09-02T01:51:55.901Z,76.50
2022-09-02T01:54:24.677Z,76.60
2022-09-02T01:56:54.498Z,76.70
2022-09-02T02:04:20.197Z,77.30
2022-09-02T02:11:51.302Z,77.50
2022-09-02T02:14:21.503Z,78.00
2022-09-02T02:16:50.667Z,78.20
2022-09-02T02:24:17.397Z,78.70
2022-09-02T02:29:14.995Z,78.80
2022-09-02T02:31:45.540Z,78.90
2022-09-02T02:39:12.868Z,79.40
2022-09-02T02:41:44.873Z,79.70
2022-09-02T02:59:08.261Z,81.60
2022-09-02T03:01:36.946Z,81.40
2022-09-02T03:04:06.355Z,81.60
2022-09-02T03:06:36.746Z,81.40
2022-09-02T03:09:05.720Z,81.40
2022-09-02T03:11:34.389Z,81.20
2022-09-02T03:19:00.068Z,81.70
2022-09-02T03:24:09.008Z,81.90
2022-09-02T03:26:37.730Z,81.90
2022-09-02T03:29:06.549Z,82.30
2022-09-02T03:31:34.940Z,82.00
2022-09-02T03:36:38.781Z,82.20
2022-09-02T03:39:10.225Z,82.10
2022-09-02T03:41:41.182Z,81.90
2022-09-02T03:49:07.124Z,82.10
2022-09-02T03:51:36.023Z,82.20
2022-09-02T03:54:04.522Z,82.00
2022-09-02T03:56:34.172Z,82.30
2022-09-02T04:01:34.395Z,83.20
2022-09-02T04:04:03.950Z,83.20
2022-09-02T04:11:29.857Z,84.00
2022-09-02T04:14:00.634Z,84.20
2022-09-02T04:19:02.278Z,84.40
2022-09-02T04:21:33.900Z,84.50
2022-09-02T04:29:02.958Z,85.40
2022-09-02T04:34:03.769Z,85.60
2022-09-02T04:39:01.275Z,85.50
2022-09-02T04:41:31.286Z,85.70
2022-09-02T04:44:02.102Z,85.70
2022-09-02T04:46:34.677Z,85.50
2022-09-02T04:49:03.925Z,85.70
2022-09-02T04:56:32.246Z,86.60
2022-09-02T04:59:00.477Z,86.80
2022-09-02T05:01:34.079Z,87.10
2022-09-02T05:04:03.008Z,87.20
2022-09-02T05:09:02.021Z,87.40
2022-09-02T05:11:32.021Z,87.30
2022-09-02T05:14:02.532Z,87.10
2022-09-02T05:16:38.713Z,87.20
2022-09-02T05:19:09.710Z,87.20
2022-09-02T05:21:41.557Z,87.20
2022-09-02T05:29:09.931Z,87.50
2022-09-02T05:32:37.433Z,87.30
2022-09-02T05:35:06.735Z,87.30
2022-09-02T05:37:36.326Z,87.60
2022-09-02T05:40:06.748Z,87.20
2022-09-02T05:42:37.619Z,87.20
2022-09-02T05:45:07.123Z,86.90
2022-09-02T05:47:37.429Z,86.60
2022-09-02T05:50:08.268Z,86.60
2022-09-02T05:52:36.550Z,86.60
2022-09-02T05:55:05.876Z,86.60
2022-09-02T06:00:04.648Z,87.30
2022-09-02T06:05:03.552Z,87.30
2022-09-02T06:07:32.482Z,87.30
2022-09-02T06:12:33.164Z,87.80
2022-09-02T06:15:03.670Z,87.50
2022-09-02T06:22:30.656Z,87.20
2022-09-02T06:24:59.668Z,86.80
2022-09-02T06:27:27.902Z,86.70
2022-09-02T06:32:24.794Z,85.20
2022-09-02T06:34:53.081Z,84.70
2022-09-02T06:37:21.469Z,85.20
2022-09-02T06:39:51.345Z,84.30
2022-09-02T06:42:22.741Z,84.20
2022-09-02T06:44:51.631Z,84.30
2022-09-02T06:47:19.877Z,82.50
2022-09-02T06:49:48.370Z,80.90
2022-09-02T06:52:16.574Z,81.50
2022-09-02T06:54:46.409Z,79.20
2022-09-02T06:59:46.711Z,74.10
2022-09-02T07:07:36.637Z,66.20
2022-09-02T07:10:06.338Z,66.20
2022-09-02T07:12:37.854Z,65.70
2022-09-02T07:15:07.437Z,65.00
2022-09-02T07:17:35.903Z,66.40
2022-09-02T07:20:08.037Z,67.50
2022-09-02T07:25:05.946Z,69.40
2022-09-02T07:27:37.439Z,69.60
2022-09-02T07:30:06.790Z,70.20
2022-09-02T07:32:35.366Z,70.60
2022-09-02T07:37:34.753Z,67.80
2022-09-02T07:40:03.335Z,67.50
2022-09-02T07:42:31.733Z,67.40
2022-09-02T07:45:02.032Z,66.70
2022-09-02T07:47:32.426Z,66.40
2022-09-02T07:50:21.013Z,66.20
2022-09-02T07:52:50.641Z,66.00
2022-09-02T07:55:18.982Z,65.60
2022-09-02T08:00:19.769Z,66.30
2022-09-02T08:02:49.436Z,66.80
2022-09-02T08:15:40.224Z,66.70
2022-09-02T08:21:23.150Z,65.70
2022-09-02T08:23:51.693Z,65.20
2022-09-02T08:26:21.490Z,65.00
2022-09-02T08:28:50.170Z,65.10
2022-09-02T08:31:20.502Z,64.90
2022-09-02T08:38:55.259Z,64.10
2022-09-02T08:41:26.886Z,62.70
2022-09-02T08:43:58.216Z,62.10
2022-09-02T08:46:31.014Z,62.50
2022-09-02T08:49:18.250Z,62.70
2022-09-02T08:51:56.209Z,62.40
2022-09-02T08:54:39.203Z,62.20
2022-09-02T09:02:20.336Z,61.60
2022-09-02T09:05:25.404Z,61.20
2022-09-02T09:08:13.903Z,60.80
2022-09-02T09:11:17.634Z,61.30
2022-09-02T09:14:04.520Z,60.50
2022-09-02T09:16:42.532Z,59.20
2022-09-02T09:19:16.554Z,58.50
2022-09-02T09:21:46.584Z,57.80
2022-09-02T09:24:26.194Z,57.60
2022-09-02T09:26:57.013Z,57.30
2022-09-02T09:31:59.057Z,56.00
2022-09-02T09:34:58.036Z,56.50
2022-09-02T09:37:36.251Z,57.30
2022-09-02T09:40:27.520Z,57.00
2022-09-02T09:42:58.916Z,56.70
2022-09-02T09:45:37.138Z,56.10
2022-09-02T09:48:23.182Z,55.50
2022-09-02T09:51:13.894Z,55.40
2022-09-02T09:53:47.574Z,55.30
2022-09-02T09:56:37.245Z,54.50
2022-09-02T09:59:09.980Z,54.20
2022-09-02T10:01:38.986Z,53.80
2022-09-02T10:04:32.171Z,52.50
2022-09-02T10:09:37.865Z,51.90
2022-09-02T10:12:08.455Z,51.10
2022-09-02T10:14:42.324Z,51.80
2022-09-02T10:21:15.311Z,51.00
2022-09-02T10:23:58.969Z,51.40
2022-09-02T10:26:37.872Z,51.30
2022-09-02T10:29:42.416Z,49.90
2022-09-02T10:32:28.990Z,50.20
2022-09-02T10:35:12.970Z,48.00
2022-09-02T10:38:01.361Z,48.40
2022-09-02T10:40:44.246Z,49.10
2022-09-02T10:43:26.269Z,49.30
2022-09-02T10:45:59.802Z,48.50
2022-09-02T10:48:48.386Z,47.40
2022-09-02T10:51:26.883Z,48.20
2022-09-02T10:54:10.966Z,48.70
2022-09-02T10:56:47.524Z,49.10
2022-09-02T10:59:23.570Z,49.20
2022-09-02T11:01:59.177Z,48.30
2022-09-02T11:04:39.460Z,47.70
2022-09-02T11:07:14.369Z,47.60
2022-09-02T11:09:50.577Z,47.70
2022-09-02T11:12:23.994Z,47.30
2022-09-02T11:15:04.779Z,47.30
2022-09-02T11:17:39.946Z,47.10
2022-09-02T11:20:16.803Z,46.90
2022-09-02T11:22:54.760Z,47.20
2022-09-02T11:25:26.345Z,47.40
2022-09-02T11:28:07.316Z,48.00
2022-09-02T11:30:45.091Z,46.80
2022-09-02T11:33:22.994Z,46.00
2022-09-02T11:35:51.376Z,45.70
2022-09-02T11:38:37.624Z,45.70
2022-09-02T11:41:33.485Z,46.10
2022-09-02T11:44:28.091Z,45.20
2022-09-02T11:47:19.205Z,46.00
2022-09-02T11:50:21.980Z,46.70
2022-09-02T11:53:01.778Z,46.10
2022-09-02T11:55:35.703Z,46.70
2022-09-02T12:00:37.835Z,46.70
2022-09-02T12:03:46.643Z,46.90
2022-09-02T12:06:14.474Z,47.30
2022-09-02T12:09:15.380Z,46.60
2022-09-02T12:11:55.012Z,47.00
2022-09-02T12:15:11.684Z,46.40
2022-09-02T12:18:09.741Z,46.70
2022-09-02T12:21:33.513Z,45.80
2022-09-02T12:24:24.183Z,45.40
2022-09-02T12:27:26.571Z,45.40
2022-09-02T12:29:59.017Z,43.50
2022-09-02T12:33:13.771Z,43.50
2022-09-02T12:36:03.259Z,43.80
2022-09-02T12:38:34.708Z,44.70
2022-09-02T12:41:17.234Z,45.00
2022-09-02T12:44:00.224Z,43.70
2022-09-02T12:46:44.161Z,44.20
2022-09-02T12:49:30.945Z,44.10
2022-09-02T12:52:02.805Z,45.00
2022-09-02T12:54:41.533Z,44.50
2022-09-02T12:57:16.314Z,45.00
2022-09-02T12:59:46.335Z,44.80
2022-09-02T13:02:33.000Z,44.00
2022-09-02T13:05:16.308Z,43.60
2022-09-02T13:08:27.275Z,43.40
2022-09-02T13:11:36.872Z,43.30
2022-09-02T13:14:48.392Z,43.60
2022-09-02T13:17:42.743Z,43.60
2022-09-02T13:21:23.485Z,43.90
2022-09-02T13:24:41.874Z,43.40
2022-09-02T13:27:35.986Z,43.70
2022-09-02T13:30:16.208Z,43.90
2022-09-02T13:32:46.970Z,44.30
2022-09-02T13:35:28.627Z,44.40
2022-09-02T13:38:01.715Z,43.70
2022-09-02T13:40:33.783Z,43.40
2022-09-02T13:43:06.661Z,43.30
2022-09-02T13:48:32.256Z,43.80
2022-09-02T13:51:09.179Z,44.50
2022-09-02T13:53:42.170Z,43.50
2022-09-02T13:56:27.589Z,44.00
2022-09-02T13:58:58.026Z,43.90
2022-09-02T14:01:30.040Z,42.50
2022-09-02T14:04:12.869Z,42.70
2022-09-02T14:06:49.073Z,43.70
2022-09-02T14:09:25.641Z,42.90
2022-09-02T14:14:25.422Z,41.80
2022-09-02T14:19:27.306Z,42.30
2022-09-02T14:25:27.224Z,42.00
2022-09-02T14:28:02.290Z,42.70
2022-09-02T14:30:34.744Z,43.70
2022-09-02T14:33:21.930Z,42.70
2022-09-02T14:36:00.791Z,42.10
2022-09-02T14:38:35.291Z,41.50
2022-09-02T14:48:44.526Z,41.90
2022-09-02T14:51:15.564Z,42.40
2022-09-02T14:53:46.143Z,42.70
2022-09-02T14:58:56.909Z,42.70
2022-09-02T15:01:46.847Z,43.60
2022-09-02T15:04:18.389Z,42.00
2022-09-02T15:06:52.479Z,41.90
2022-09-02T15:09:24.476Z,41.80
2022-09-02T15:12:04.526Z,42.10
2022-09-02T15:17:17.036Z,42.30
2022-09-02T15:22:33.599Z,43.70
2022-09-02T15:25:02.897Z,43.50
2022-09-02T15:27:32.007Z,42.20
2022-09-02T15:30:00.835Z,41.50
2022-09-02T15:32:29.803Z,41.40
2022-09-02T15:37:44.794Z,41.30
2022-09-02T15:40:16.164Z,42.40
2022-09-02T15:42:47.013Z,42.00
2022-09-02T15:45:15.619Z,41.40
2022-09-02T15:47:43.823Z,42.60
2022-09-02T15:55:33.580Z,41.60
2022-09-02T15:58:30.894Z,41.70
2022-09-02T16:01:06.165Z,41.60
2022-09-02T16:11:19.595Z,41.70
2022-09-02T16:13:50.229Z,41.60
2022-09-02T16:19:09.119Z,42.20
2022-09-02T16:21:51.216Z,42.90
2022-09-02T16:48:53.502Z,43.10
2022-09-02T16:51:21.750Z,42.30
2022-09-02T16:54:08.700Z,42.40
2022-09-02T16:57:02.762Z,42.70
2022-09-02T17:18:09.744Z,43.20
2022-09-02T17:20:37.896Z,43.10
2022-09-02T17:43:00.087Z,44.10
2022-09-02T17:45:29.750Z,44.20
2022-09-02T17:48:08.852Z,44.10
2022-09-02T17:53:19.441Z,44.30
2022-09-02T17:55:50.353Z,44.50
2022-09-02T17:58:22.937Z,44.80
2022-09-02T18:00:57.383Z,45.10
2022-09-02T18:03:40.303Z,45.20
2022-09-02T18:06:18.150Z,45.50
2022-09-02T18:08:56.180Z,45.80
2022-09-02T18:11:32.272Z,46.00
2022-09-02T18:22:55.843Z,47.10
2022-09-02T18:37:40.849Z,47.90
2022-09-02T18:42:51.387Z,47.80
2022-09-02T18:45:25.229Z,48.30
2022-09-02T18:47:56.461Z,48.20
2022-09-02T18:53:25.658Z,48.30
2022-09-02T18:55:55.617Z,48.10
2022-09-02T18:58:35.150Z,48.30
2022-09-02T19:01:08.876Z,48.50
2022-09-02T19:03:38.582Z,48.50
2022-09-02T19:06:11.684Z,48.80
2022-09-02T19:08:41.386Z,49.40
2022-09-02T19:11:13.687Z,49.10
2022-09-02T19:13:50.002Z,49.30
2022-09-02T19:16:20.766Z,49.30
2022-09-02T19:21:29.427Z,49.40
2022-09-02T19:24:00.716Z,49.50
2022-09-02T19:26:31.849Z,49.50
2022-09-02T19:34:04.573Z,49.90
2022-09-02T19:36:34.430Z,50.00
2022-09-02T19:39:04.465Z,49.80
2022-09-02T19:41:33.472Z,49.90
2022-09-02T19:49:21.886Z,50.20
2022-09-02T19:54:23.321Z,50.40
2022-09-02T20:01:50.258Z,50.60
2022-09-02T20:04:20.405Z,50.70
2022-09-02T20:09:17.765Z,50.90
2022-09-02T20:11:48.164Z,51.00
2022-09-02T20:21:45.873Z,51.20
2022-09-02T20:24:25.152Z,51.40
2022-09-02T20:27:02.846Z,51.40
2022-09-02T20:29:42.721Z,51.50
2022-09-02T20:32:23.949Z,51.70
2022-09-02T20:35:03.950Z,51.80
2022-09-02T20:40:34.990Z,51.90
2022-09-02T20:43:35.905Z,52.10
2022-09-02T20:46:12.660Z,52.20
2022-09-02T20:48:58.924Z,52.40
2022-09-02T20:51:31.698Z,52.40
2022-09-02T20:54:21.334Z,52.60
2022-09-02T20:57:00.268Z,52.60
2022-09-02T20:59:40.916Z,52.70
2022-09-02T21:02:11.732Z,52.80
2022-09-02T21:04:44.601Z,52.90
2022-09-02T21:09:49.550Z,52.90
2022-09-02T21:12:32.456Z,53.00
2022-09-02T21:15:10.750Z,53.10
2022-09-02T21:17:48.417Z,53.20
2022-09-02T21:20:22.704Z,53.20
2022-09-02T21:25:26.543Z,53.40
2022-09-02T21:33:00.189Z,53.70
2022-09-02T21:35:34.473Z,53.70
2022-09-02T21:38:11.422Z,53.90
2022-09-02T21:40:52.941Z,54.00
2022-09-02T21:43:36.707Z,54.10
2022-09-02T21:46:16.686Z,54.10
2022-09-02T21:48:59.099Z,54.30
2022-09-02T21:51:33.849Z,54.40
2022-09-02T21:54:16.881Z,54.50
2022-09-02T21:57:01.809Z,54.60
2022-09-02T21:59:46.592Z,54.80
2022-09-02T22:02:25.849Z,55.00
2022-09-02T22:05:02.929Z,55.00
2022-09-02T22:07:36.569Z,55.20
2022-09-02T22:10:13.923Z,55.20
2022-09-02T22:15:22.341Z,55.40
2022-09-02T22:17:56.223Z,55.50
2022-09-02T22:20:32.279Z,55.70
2022-09-02T22:23:06.358Z,55.70
2022-09-02T22:28:12.403Z,55.80
2022-09-02T22:35:54.583Z,56.10
2022-09-02T22:38:26.720Z,56.20
2022-09-02T22:41:01.290Z,56.30
2022-09-02T22:43:41.692Z,56.30
2022-09-02T22:46:32.957Z,56.30
2022-09-02T22:49:24.945Z,56.40
2022-09-02T22:52:17.898Z,56.70
2022-09-02T22:57:33.730Z,56.80
2022-09-02T23:00:07.712Z,56.80
2022-09-02T23:02:40.392Z,56.90
2022-09-02T23:05:45.857Z,56.90
2022-09-02T23:08:16.063Z,57.00
2022-09-02T23:13:23.805Z,57.20
2022-09-02T23:16:00.959Z,57.40
2022-09-02T23:18:40.416Z,57.30
2022-09-02T23:21:19.612Z,57.40
2022-09-02T23:23:58.615Z,57.40
2022-09-02T23:26:35.457Z,57.50
2022-09-02T23:29:19.158Z,57.60
2022-09-02T23:32:05.743Z,57.80
2022-09-02T23:34:51.558Z,57.90
2022-09-02T23:37:30.829Z,57.90
2022-09-02T23:40:11.599Z,58.00
2022-09-02T23:45:21.935Z,58.10
2022-09-02T23:48:10.395Z,58.00
2022-09-02T23:50:49.605Z,58.20
2022-09-02T23:53:25.331Z,58.20
2022-09-02T23:56:04.830Z,58.40
2022-09-02T23:58:52.617Z,58.70
